sensor_id;sensor_type;location;lat;lon;timestamp;P1;durP1;ratioP1;P2;durP2;ratioP2
1977;SDS011;989;53.016;8.346;2024-03-08T00:01:34;21.60;;;10.63;;
1977;SDS011;989;53.016;8.346;2024-03-08T00:04:00;16.80;;;9.57;;
1977;SDS011;989;53.016;8.346;2024-03-08T00:06:25;22.80;;;11.03;;
1977;SDS011;989;53.016;8.346;2024-03-08T00:08:51;19.03;;;10.10;;
1977;SDS011;989;53.016;8.346;2024-03-08T00:11:16;48.40;;;11.23;;
1977;SDS011;989;53.016;8.346;2024-03-08T00:13:42;27.13;;;11.50;;
1977;SDS011;989;53.016;8.346;2024-03-08T00:16:07;13.87;;;9.27;;
1977;SDS011;989;53.016;8.346;2024-03-08T00:18:34;18.17;;;9.55;;
1977;SDS011;989;53.016;8.346;2024-03-08T00:20:59;23.73;;;10.67;;
1977;SDS011;989;53.016;8.346;2024-03-08T00:23:25;21.90;;;10.37;;
1977;SDS011;989;53.016;8.346;2024-03-08T00:25:50;20.03;;;10.00;;
1977;SDS011;989;53.016;8.346;2024-03-08T00:28:16;18.60;;;9.90;;
1977;SDS011;989;53.016;8.346;2024-03-08T00:30:43;16.50;;;9.82;;
1977;SDS011;989;53.016;8.346;2024-03-08T00:33:10;23.27;;;12.45;;
1977;SDS011;989;53.016;8.346;2024-03-08T00:35:35;16.97;;;9.10;;
1977;SDS011;989;53.016;8.346;2024-03-08T00:38:01;27.97;;;11.60;;
1977;SDS011;989;53.016;8.346;2024-03-08T00:40:26;20.00;;;9.23;;
1977;SDS011;989;53.016;8.346;2024-03-08T00:42:52;24.33;;;10.83;;
1977;SDS011;989;53.016;8.346;2024-03-08T00:45:18;24.50;;;11.97;;
1977;SDS011;989;53.016;8.346;2024-03-08T00:47:43;17.77;;;9.50;;
1977;SDS011;989;53.016;8.346;2024-03-08T00:50:09;21.87;;;11.40;;
1977;SDS011;989;53.016;8.346;2024-03-08T00:52:35;17.97;;;10.70;;
1977;SDS011;989;53.016;8.346;2024-03-08T00:55:00;18.87;;;10.60;;
1977;SDS011;989;53.016;8.346;2024-03-08T00:57:26;18.25;;;9.27;;
1977;SDS011;989;53.016;8.346;2024-03-08T00:59:52;17.05;;;9.73;;
1977;SDS011;989;53.016;8.346;2024-03-08T01:02:18;17.33;;;10.30;;
1977;SDS011;989;53.016;8.346;2024-03-08T01:04:44;18.93;;;9.80;;
1977;SDS011;989;53.016;8.346;2024-03-08T01:07:09;13.83;;;8.80;;
1977;SDS011;989;53.016;8.346;2024-03-08T01:09:35;17.10;;;9.83;;
1977;SDS011;989;53.016;8.346;2024-03-08T01:12:01;20.10;;;10.43;;
1977;SDS011;989;53.016;8.346;2024-03-08T01:14:26;20.73;;;11.13;;
1977;SDS011;989;53.016;8.346;2024-03-08T01:16:51;20.97;;;11.00;;
1977;SDS011;989;53.016;8.346;2024-03-08T01:19:17;18.40;;;10.27;;
1977;SDS011;989;53.016;8.346;2024-03-08T01:21:43;22.47;;;11.40;;
1977;SDS011;989;53.016;8.346;2024-03-08T01:24:08;18.90;;;10.63;;
1977;SDS011;989;53.016;8.346;2024-03-08T01:26:33;25.60;;;9.67;;
1977;SDS011;989;53.016;8.346;2024-03-08T01:28:59;20.63;;;9.47;;
1977;SDS011;989;53.016;8.346;2024-03-08T01:31:25;14.10;;;9.02;;
1977;SDS011;989;53.016;8.346;2024-03-08T01:33:50;16.77;;;9.83;;
1977;SDS011;989;53.016;8.346;2024-03-08T01:36:16;18.07;;;10.50;;
1977;SDS011;989;53.016;8.346;2024-03-08T01:38:42;17.55;;;10.02;;
1977;SDS011;989;53.016;8.346;2024-03-08T01:41:08;19.73;;;9.50;;
1977;SDS011;989;53.016;8.346;2024-03-08T01:43:34;20.83;;;10.30;;
1977;SDS011;989;53.016;8.346;2024-03-08T01:45:59;17.17;;;10.47;;
1977;SDS011;989;53.016;8.346;2024-03-08T01:48:25;19.40;;;10.33;;
1977;SDS011;989;53.016;8.346;2024-03-08T01:50:51;20.05;;;10.80;;
1977;SDS011;989;53.016;8.346;2024-03-08T01:53:17;17.77;;;9.23;;
1977;SDS011;989;53.016;8.346;2024-03-08T01:55:44;16.85;;;9.13;;
1977;SDS011;989;53.016;8.346;2024-03-08T01:58:11;23.73;;;10.07;;
1977;SDS011;989;53.016;8.346;2024-03-08T02:00:38;17.00;;;10.00;;
1977;SDS011;989;53.016;8.346;2024-03-08T02:03:05;19.23;;;9.75;;
1977;SDS011;989;53.016;8.346;2024-03-08T02:05:30;22.40;;;11.00;;
1977;SDS011;989;53.016;8.346;2024-03-08T02:07:56;17.57;;;9.83;;
1977;SDS011;989;53.016;8.346;2024-03-08T02:10:22;18.63;;;9.47;;
1977;SDS011;989;53.016;8.346;2024-03-08T02:12:47;19.53;;;8.87;;
1977;SDS011;989;53.016;8.346;2024-03-08T02:15:13;16.23;;;8.85;;
1977;SDS011;989;53.016;8.346;2024-03-08T02:17:40;12.85;;;8.60;;
1977;SDS011;989;53.016;8.346;2024-03-08T02:20:05;13.30;;;8.37;;
1977;SDS011;989;53.016;8.346;2024-03-08T02:22:31;20.33;;;10.53;;
1977;SDS011;989;53.016;8.346;2024-03-08T02:24:59;16.08;;;8.60;;
1977;SDS011;989;53.016;8.346;2024-03-08T02:27:26;18.05;;;9.43;;
1977;SDS011;989;53.016;8.346;2024-03-08T02:29:53;17.77;;;9.45;;
1977;SDS011;989;53.016;8.346;2024-03-08T02:32:21;18.63;;;10.10;;
1977;SDS011;989;53.016;8.346;2024-03-08T02:34:47;17.10;;;8.98;;
1977;SDS011;989;53.016;8.346;2024-03-08T02:37:12;17.00;;;10.27;;
1977;SDS011;989;53.016;8.346;2024-03-08T02:39:38;22.57;;;10.33;;
1977;SDS011;989;53.016;8.346;2024-03-08T02:42:03;16.50;;;9.20;;
1977;SDS011;989;53.016;8.346;2024-03-08T02:44:29;15.20;;;9.10;;
1977;SDS011;989;53.016;8.346;2024-03-08T02:46:54;21.07;;;10.07;;
1977;SDS011;989;53.016;8.346;2024-03-08T02:49:20;20.60;;;9.07;;
1977;SDS011;989;53.016;8.346;2024-03-08T02:51:46;19.13;;;10.07;;
1977;SDS011;989;53.016;8.346;2024-03-08T02:54:11;19.00;;;8.57;;
1977;SDS011;989;53.016;8.346;2024-03-08T02:56:37;19.77;;;8.67;;
1977;SDS011;989;53.016;8.346;2024-03-08T02:59:02;19.30;;;8.83;;
1977;SDS011;989;53.016;8.346;2024-03-08T03:01:28;21.63;;;10.40;;
1977;SDS011;989;53.016;8.346;2024-03-08T03:03:53;13.60;;;8.40;;
1977;SDS011;989;53.016;8.346;2024-03-08T03:06:18;19.00;;;9.77;;
1977;SDS011;989;53.016;8.346;2024-03-08T03:08:46;17.55;;;9.23;;
1977;SDS011;989;53.016;8.346;2024-03-08T03:11:11;13.83;;;7.50;;
1977;SDS011;989;53.016;8.346;2024-03-08T03:13:38;27.88;;;10.02;;
1977;SDS011;989;53.016;8.346;2024-03-08T03:16:04;16.63;;;9.20;;
1977;SDS011;989;53.016;8.346;2024-03-08T03:18:29;14.67;;;8.43;;
1977;SDS011;989;53.016;8.346;2024-03-08T03:20:55;20.20;;;8.87;;
1977;SDS011;989;53.016;8.346;2024-03-08T03:23:21;14.57;;;9.57;;
1977;SDS011;989;53.016;8.346;2024-03-08T03:25:46;13.53;;;8.20;;
1977;SDS011;989;53.016;8.346;2024-03-08T03:28:12;14.10;;;8.60;;
1977;SDS011;989;53.016;8.346;2024-03-08T03:30:42;22.02;;;10.52;;
1977;SDS011;989;53.016;8.346;2024-03-08T03:33:08;18.42;;;10.10;;
1977;SDS011;989;53.016;8.346;2024-03-08T03:35:34;12.18;;;8.02;;
1977;SDS011;989;53.016;8.346;2024-03-08T03:38:01;14.20;;;7.70;;
1977;SDS011;989;53.016;8.346;2024-03-08T03:40:30;22.58;;;9.05;;
1977;SDS011;989;53.016;8.346;2024-03-08T03:42:56;22.70;;;8.57;;
1977;SDS011;989;53.016;8.346;2024-03-08T03:45:21;17.60;;;9.90;;
1977;SDS011;989;53.016;8.346;2024-03-08T03:47:47;23.83;;;9.50;;
1977;SDS011;989;53.016;8.346;2024-03-08T03:50:12;25.53;;;9.97;;
1977;SDS011;989;53.016;8.346;2024-03-08T03:52:38;21.43;;;9.57;;
1977;SDS011;989;53.016;8.346;2024-03-08T03:55:04;16.65;;;9.57;;
1977;SDS011;989;53.016;8.346;2024-03-08T03:57:30;18.00;;;9.67;;
1977;SDS011;989;53.016;8.346;2024-03-08T03:59:56;15.97;;;9.73;;
1977;SDS011;989;53.016;8.346;2024-03-08T04:02:23;20.10;;;10.73;;
1977;SDS011;989;53.016;8.346;2024-03-08T04:04:49;16.53;;;9.47;;
1977;SDS011;989;53.016;8.346;2024-03-08T04:07:14;19.37;;;9.93;;
1977;SDS011;989;53.016;8.346;2024-03-08T04:09:40;16.50;;;9.32;;
1977;SDS011;989;53.016;8.346;2024-03-08T04:12:05;20.00;;;10.03;;
1977;SDS011;989;53.016;8.346;2024-03-08T04:14:32;19.35;;;10.38;;
1977;SDS011;989;53.016;8.346;2024-03-08T04:16:57;20.30;;;9.70;;
1977;SDS011;989;53.016;8.346;2024-03-08T04:19:23;15.97;;;9.00;;
1977;SDS011;989;53.016;8.346;2024-03-08T04:21:49;14.43;;;9.05;;
1977;SDS011;989;53.016;8.346;2024-03-08T04:24:15;18.40;;;9.33;;
1977;SDS011;989;53.016;8.346;2024-03-08T04:26:42;15.05;;;10.07;;
1977;SDS011;989;53.016;8.346;2024-03-08T04:29:07;21.93;;;10.17;;
1977;SDS011;989;53.016;8.346;2024-03-08T04:31:32;18.47;;;8.90;;
1977;SDS011;989;53.016;8.346;2024-03-08T04:33:58;20.03;;;8.37;;
1977;SDS011;989;53.016;8.346;2024-03-08T04:36:23;26.07;;;9.60;;
1977;SDS011;989;53.016;8.346;2024-03-08T04:38:49;17.48;;;9.10;;
1977;SDS011;989;53.016;8.346;2024-03-08T04:41:16;14.68;;;7.93;;
1977;SDS011;989;53.016;8.346;2024-03-08T04:43:41;17.20;;;8.60;;
1977;SDS011;989;53.016;8.346;2024-03-08T04:46:07;14.60;;;7.00;;
1977;SDS011;989;53.016;8.346;2024-03-08T04:48:33;16.83;;;8.38;;
1977;SDS011;989;53.016;8.346;2024-03-08T04:51:01;16.10;;;9.20;;
1977;SDS011;989;53.016;8.346;2024-03-08T04:53:27;12.48;;;7.78;;
1977;SDS011;989;53.016;8.346;2024-03-08T04:55:54;26.15;;;9.15;;
1977;SDS011;989;53.016;8.346;2024-03-08T04:58:19;12.53;;;7.77;;
1977;SDS011;989;53.016;8.346;2024-03-08T05:00:46;16.95;;;9.07;;
1977;SDS011;989;53.016;8.346;2024-03-08T05:03:11;15.50;;;8.83;;
1977;SDS011;989;53.016;8.346;2024-03-08T05:05:36;17.37;;;8.87;;
1977;SDS011;989;53.016;8.346;2024-03-08T05:08:02;15.87;;;9.07;;
1977;SDS011;989;53.016;8.346;2024-03-08T05:10:27;10.50;;;7.50;;
1977;SDS011;989;53.016;8.346;2024-03-08T05:12:53;68.87;;;13.90;;
1977;SDS011;989;53.016;8.346;2024-03-08T05:15:18;12.93;;;8.03;;
1977;SDS011;989;53.016;8.346;2024-03-08T05:17:45;23.35;;;10.82;;
1977;SDS011;989;53.016;8.346;2024-03-08T05:20:11;12.57;;;8.47;;
1977;SDS011;989;53.016;8.346;2024-03-08T05:22:38;23.55;;;9.63;;
1977;SDS011;989;53.016;8.346;2024-03-08T05:25:05;15.65;;;8.60;;
1977;SDS011;989;53.016;8.346;2024-03-08T05:27:33;15.95;;;9.48;;
1977;SDS011;989;53.016;8.346;2024-03-08T05:29:59;15.25;;;9.10;;
1977;SDS011;989;53.016;8.346;2024-03-08T05:32:24;18.60;;;9.63;;
1977;SDS011;989;53.016;8.346;2024-03-08T05:34:50;28.03;;;9.90;;
1977;SDS011;989;53.016;8.346;2024-03-08T05:37:15;12.03;;;7.83;;
1977;SDS011;989;53.016;8.346;2024-03-08T05:39:40;24.40;;;9.67;;
1977;SDS011;989;53.016;8.346;2024-03-08T05:42:06;13.30;;;8.40;;
1977;SDS011;989;53.016;8.346;2024-03-08T05:44:33;13.98;;;8.35;;
1977;SDS011;989;53.016;8.346;2024-03-08T05:46:59;16.20;;;9.13;;
1977;SDS011;989;53.016;8.346;2024-03-08T05:49:24;15.17;;;8.80;;
1977;SDS011;989;53.016;8.346;2024-03-08T05:51:50;14.03;;;9.03;;
1977;SDS011;989;53.016;8.346;2024-03-08T05:54:16;17.83;;;9.20;;
1977;SDS011;989;53.016;8.346;2024-03-08T05:56:42;18.10;;;9.97;;
1977;SDS011;989;53.016;8.346;2024-03-08T05:59:08;14.77;;;9.25;;
1977;SDS011;989;53.016;8.346;2024-03-08T06:01:34;13.10;;;9.05;;
1977;SDS011;989;53.016;8.346;2024-03-08T06:04:01;15.45;;;8.85;;
1977;SDS011;989;53.016;8.346;2024-03-08T06:06:27;16.15;;;9.07;;
1977;SDS011;989;53.016;8.346;2024-03-08T06:08:53;14.87;;;8.70;;
1977;SDS011;989;53.016;8.346;2024-03-08T06:11:18;14.77;;;7.53;;
1977;SDS011;989;53.016;8.346;2024-03-08T06:13:45;13.63;;;7.90;;
1977;SDS011;989;53.016;8.346;2024-03-08T06:16:11;18.80;;;11.50;;
1977;SDS011;989;53.016;8.346;2024-03-08T06:18:36;17.63;;;9.37;;
1977;SDS011;989;53.016;8.346;2024-03-08T06:21:03;15.13;;;9.10;;
1977;SDS011;989;53.016;8.346;2024-03-08T06:23:30;16.35;;;9.20;;
1977;SDS011;989;53.016;8.346;2024-03-08T06:25:56;33.33;;;11.55;;
1977;SDS011;989;53.016;8.346;2024-03-08T06:28:22;13.93;;;8.48;;
1977;SDS011;989;53.016;8.346;2024-03-08T06:30:48;14.47;;;8.77;;
1977;SDS011;989;53.016;8.346;2024-03-08T06:33:13;15.83;;;10.13;;
1977;SDS011;989;53.016;8.346;2024-03-08T06:35:38;18.27;;;9.50;;
1977;SDS011;989;53.016;8.346;2024-03-08T06:38:04;27.42;;;12.30;;
1977;SDS011;989;53.016;8.346;2024-03-08T06:40:30;22.13;;;11.03;;
1977;SDS011;989;53.016;8.346;2024-03-08T06:42:55;23.27;;;9.87;;
1977;SDS011;989;53.016;8.346;2024-03-08T06:45:21;15.37;;;9.10;;
1977;SDS011;989;53.016;8.346;2024-03-08T06:47:48;20.70;;;9.20;;
1977;SDS011;989;53.016;8.346;2024-03-08T06:50:13;21.60;;;11.13;;
1977;SDS011;989;53.016;8.346;2024-03-08T06:52:40;18.95;;;10.10;;
1977;SDS011;989;53.016;8.346;2024-03-08T06:55:07;24.48;;;12.70;;
1977;SDS011;989;53.016;8.346;2024-03-08T06:57:33;25.50;;;12.55;;
1977;SDS011;989;53.016;8.346;2024-03-08T06:59:59;26.03;;;11.10;;
1977;SDS011;989;53.016;8.346;2024-03-08T07:02:24;25.43;;;11.37;;
1977;SDS011;989;53.016;8.346;2024-03-08T07:04:50;26.17;;;11.70;;
1977;SDS011;989;53.016;8.346;2024-03-08T07:07:16;20.48;;;12.18;;
1977;SDS011;989;53.016;8.346;2024-03-08T07:09:45;27.27;;;13.60;;
1977;SDS011;989;53.016;8.346;2024-03-08T07:12:10;21.77;;;13.37;;
1977;SDS011;989;53.016;8.346;2024-03-08T07:14:38;28.52;;;13.35;;
1977;SDS011;989;53.016;8.346;2024-03-08T07:17:05;21.55;;;11.48;;
1977;SDS011;989;53.016;8.346;2024-03-08T07:19:33;18.23;;;11.38;;
1977;SDS011;989;53.016;8.346;2024-03-08T07:21:59;32.13;;;11.90;;
1977;SDS011;989;53.016;8.346;2024-03-08T07:24:24;17.60;;;11.03;;
1977;SDS011;989;53.016;8.346;2024-03-08T07:27:04;27.85;;;12.30;;
1977;SDS011;989;53.016;8.346;2024-03-08T07:29:30;28.90;;;14.60;;
1977;SDS011;989;53.016;8.346;2024-03-08T07:31:56;34.83;;;16.30;;
1977;SDS011;989;53.016;8.346;2024-03-08T07:34:27;34.88;;;15.02;;
1977;SDS011;989;53.016;8.346;2024-03-08T07:36:57;29.13;;;16.98;;
1977;SDS011;989;53.016;8.346;2024-03-08T07:39:22;25.20;;;14.43;;
1977;SDS011;989;53.016;8.346;2024-03-08T07:41:48;28.03;;;16.73;;
1977;SDS011;989;53.016;8.346;2024-03-08T07:44:14;26.93;;;15.27;;
1977;SDS011;989;53.016;8.346;2024-03-08T07:46:40;25.03;;;13.63;;
1977;SDS011;989;53.016;8.346;2024-03-08T07:49:06;28.52;;;14.57;;
1977;SDS011;989;53.016;8.346;2024-03-08T07:51:31;24.23;;;14.67;;
1977;SDS011;989;53.016;8.346;2024-03-08T07:53:59;26.08;;;13.38;;
1977;SDS011;989;53.016;8.346;2024-03-08T07:56:25;25.67;;;12.80;;
1977;SDS011;989;53.016;8.346;2024-03-08T07:58:50;29.97;;;14.00;;
1977;SDS011;989;53.016;8.346;2024-03-08T08:01:19;27.70;;;14.87;;
1977;SDS011;989;53.016;8.346;2024-03-08T08:03:45;29.67;;;14.63;;
1977;SDS011;989;53.016;8.346;2024-03-08T08:06:10;29.23;;;13.73;;
1977;SDS011;989;53.016;8.346;2024-03-08T08:08:41;24.15;;;12.93;;
1977;SDS011;989;53.016;8.346;2024-03-08T08:11:06;27.88;;;13.77;;
1977;SDS011;989;53.016;8.346;2024-03-08T08:13:33;26.00;;;13.05;;
1977;SDS011;989;53.016;8.346;2024-03-08T08:15:59;34.00;;;15.37;;
1977;SDS011;989;53.016;8.346;2024-03-08T08:18:24;27.63;;;14.10;;
1977;SDS011;989;53.016;8.346;2024-03-08T08:20:50;22.33;;;13.20;;
1977;SDS011;989;53.016;8.346;2024-03-08T08:23:17;24.77;;;13.95;;
1977;SDS011;989;53.016;8.346;2024-03-08T08:25:44;31.50;;;16.42;;
1977;SDS011;989;53.016;8.346;2024-03-08T08:28:09;28.47;;;15.17;;
1977;SDS011;989;53.016;8.346;2024-03-08T08:30:35;26.53;;;16.43;;
1977;SDS011;989;53.016;8.346;2024-03-08T08:33:00;24.87;;;15.27;;
1977;SDS011;989;53.016;8.346;2024-03-08T08:35:26;29.40;;;16.43;;
1977;SDS011;989;53.016;8.346;2024-03-08T08:37:51;35.93;;;17.47;;
1977;SDS011;989;53.016;8.346;2024-03-08T08:40:17;35.17;;;17.80;;
1977;SDS011;989;53.016;8.346;2024-03-08T08:42:44;35.20;;;18.52;;
1977;SDS011;989;53.016;8.346;2024-03-08T08:45:10;32.35;;;18.63;;
1977;SDS011;989;53.016;8.346;2024-03-08T08:47:36;26.53;;;17.03;;
1977;SDS011;989;53.016;8.346;2024-03-08T08:50:02;34.17;;;19.47;;
1977;SDS011;989;53.016;8.346;2024-03-08T08:52:30;25.63;;;17.08;;
1977;SDS011;989;53.016;8.346;2024-03-08T08:54:57;38.55;;;19.80;;
1977;SDS011;989;53.016;8.346;2024-03-08T08:57:23;30.43;;;17.50;;
1977;SDS011;989;53.016;8.346;2024-03-08T08:59:49;30.47;;;17.57;;
1977;SDS011;989;53.016;8.346;2024-03-08T09:02:15;37.38;;;19.65;;
1977;SDS011;989;53.016;8.346;2024-03-08T09:04:41;33.38;;;18.13;;
1977;SDS011;989;53.016;8.346;2024-03-08T09:07:07;33.13;;;16.80;;
1977;SDS011;989;53.016;8.346;2024-03-08T09:09:32;33.90;;;19.27;;
1977;SDS011;989;53.016;8.346;2024-03-08T09:11:58;34.53;;;19.93;;
1977;SDS011;989;53.016;8.346;2024-03-08T09:14:23;32.57;;;19.30;;
1977;SDS011;989;53.016;8.346;2024-03-08T09:16:51;29.80;;;17.42;;
1977;SDS011;989;53.016;8.346;2024-03-08T09:19:16;31.60;;;19.30;;
1977;SDS011;989;53.016;8.346;2024-03-08T09:21:42;31.47;;;18.30;;
1977;SDS011;989;53.016;8.346;2024-03-08T09:24:07;28.07;;;16.93;;
1977;SDS011;989;53.016;8.346;2024-03-08T09:26:33;29.10;;;18.17;;
1977;SDS011;989;53.016;8.346;2024-03-08T09:28:58;27.90;;;17.70;;
1977;SDS011;989;53.016;8.346;2024-03-08T09:31:24;30.33;;;17.90;;
1977;SDS011;989;53.016;8.346;2024-03-08T09:33:50;35.25;;;19.33;;
1977;SDS011;989;53.016;8.346;2024-03-08T09:36:16;38.57;;;20.53;;
1977;SDS011;989;53.016;8.346;2024-03-08T09:38:42;30.00;;;19.60;;
1977;SDS011;989;53.016;8.346;2024-03-08T09:41:07;34.73;;;18.83;;
1977;SDS011;989;53.016;8.346;2024-03-08T09:43:34;25.80;;;17.48;;
1977;SDS011;989;53.016;8.346;2024-03-08T09:46:00;34.70;;;20.47;;
1977;SDS011;989;53.016;8.346;2024-03-08T09:48:25;33.43;;;17.90;;
1977;SDS011;989;53.016;8.346;2024-03-08T09:50:51;26.33;;;17.80;;
1977;SDS011;989;53.016;8.346;2024-03-08T09:53:17;29.33;;;20.00;;
1977;SDS011;989;53.016;8.346;2024-03-08T09:55:42;28.57;;;17.73;;
1977;SDS011;989;53.016;8.346;2024-03-08T09:58:11;24.70;;;15.30;;
1977;SDS011;989;53.016;8.346;2024-03-08T10:00:57;27.75;;;18.10;;
1977;SDS011;989;53.016;8.346;2024-03-08T10:03:23;25.27;;;18.10;;
1977;SDS011;989;53.016;8.346;2024-03-08T10:05:51;28.85;;;18.75;;
1977;SDS011;989;53.016;8.346;2024-03-08T10:08:16;30.70;;;18.43;;
1977;SDS011;989;53.016;8.346;2024-03-08T10:10:42;24.93;;;17.40;;
1977;SDS011;989;53.016;8.346;2024-03-08T10:13:08;27.93;;;18.90;;
1977;SDS011;989;53.016;8.346;2024-03-08T10:15:35;36.03;;;17.00;;
1977;SDS011;989;53.016;8.346;2024-03-08T10:18:01;32.00;;;18.87;;
1977;SDS011;989;53.016;8.346;2024-03-08T10:20:27;33.80;;;19.10;;
1977;SDS011;989;53.016;8.346;2024-03-08T10:22:58;28.93;;;18.80;;
1977;SDS011;989;53.016;8.346;2024-03-08T10:25:24;28.20;;;17.67;;
1977;SDS011;989;53.016;8.346;2024-03-08T10:27:50;32.07;;;18.80;;
1977;SDS011;989;53.016;8.346;2024-03-08T10:30:16;28.30;;;19.43;;
1977;SDS011;989;53.016;8.346;2024-03-08T10:32:46;25.87;;;16.10;;
1977;SDS011;989;53.016;8.346;2024-03-08T10:35:12;24.33;;;17.83;;
1977;SDS011;989;53.016;8.346;2024-03-08T10:37:47;30.10;;;19.23;;
1977;SDS011;989;53.016;8.346;2024-03-08T10:40:17;25.27;;;16.67;;
1977;SDS011;989;53.016;8.346;2024-03-08T10:42:50;31.73;;;20.60;;
1977;SDS011;989;53.016;8.346;2024-03-08T10:51:07;30.20;;;19.73;;
1977;SDS011;989;53.016;8.346;2024-03-08T10:53:33;27.70;;;20.13;;
1977;SDS011;989;53.016;8.346;2024-03-08T10:55:58;34.63;;;20.10;;
1977;SDS011;989;53.016;8.346;2024-03-08T10:58:24;34.43;;;20.73;;
1977;SDS011;989;53.016;8.346;2024-03-08T11:00:52;30.40;;;20.00;;
1977;SDS011;989;53.016;8.346;2024-03-08T11:06:07;27.10;;;16.87;;
1977;SDS011;989;53.016;8.346;2024-03-08T11:08:35;25.90;;;16.60;;
1977;SDS011;989;53.016;8.346;2024-03-08T11:11:01;37.07;;;20.10;;
1977;SDS011;989;53.016;8.346;2024-03-08T11:13:39;27.43;;;19.03;;
1977;SDS011;989;53.016;8.346;2024-03-08T11:18:49;31.73;;;19.80;;
1977;SDS011;989;53.016;8.346;2024-03-08T11:21:16;28.10;;;18.93;;
1977;SDS011;989;53.016;8.346;2024-03-08T11:23:42;29.43;;;20.60;;
1977;SDS011;989;53.016;8.346;2024-03-08T11:26:20;35.57;;;22.67;;
1977;SDS011;989;53.016;8.346;2024-03-08T11:28:46;29.27;;;21.33;;
1977;SDS011;989;53.016;8.346;2024-03-08T11:33:39;33.50;;;18.73;;
1977;SDS011;989;53.016;8.346;2024-03-08T11:36:12;30.53;;;19.00;;
1977;SDS011;989;53.016;8.346;2024-03-08T11:38:42;28.43;;;18.83;;
1977;SDS011;989;53.016;8.346;2024-03-08T11:41:23;30.33;;;17.67;;
1977;SDS011;989;53.016;8.346;2024-03-08T11:43:49;32.43;;;19.77;;
1977;SDS011;989;53.016;8.346;2024-03-08T11:46:26;30.97;;;19.60;;
1977;SDS011;989;53.016;8.346;2024-03-08T11:48:54;32.47;;;20.53;;
1977;SDS011;989;53.016;8.346;2024-03-08T11:51:20;33.30;;;19.93;;
1977;SDS011;989;53.016;8.346;2024-03-08T11:53:46;24.03;;;16.43;;
1977;SDS011;989;53.016;8.346;2024-03-08T11:56:16;35.77;;;20.07;;
1977;SDS011;989;53.016;8.346;2024-03-08T11:58:47;26.70;;;18.50;;
1977;SDS011;989;53.016;8.346;2024-03-08T12:01:19;33.33;;;18.87;;
1977;SDS011;989;53.016;8.346;2024-03-08T12:03:45;27.50;;;19.77;;
1977;SDS011;989;53.016;8.346;2024-03-08T12:06:23;27.17;;;18.50;;
1977;SDS011;989;53.016;8.346;2024-03-08T12:08:49;31.10;;;19.20;;
1977;SDS011;989;53.016;8.346;2024-03-08T12:11:16;35.20;;;20.60;;
1977;SDS011;989;53.016;8.346;2024-03-08T12:13:43;30.50;;;20.10;;
1977;SDS011;989;53.016;8.346;2024-03-08T12:16:11;31.77;;;20.87;;
1977;SDS011;989;53.016;8.346;2024-03-08T12:18:37;32.33;;;21.67;;
1977;SDS011;989;53.016;8.346;2024-03-08T12:21:03;23.17;;;17.70;;
1977;SDS011;989;53.016;8.346;2024-03-08T12:23:37;27.50;;;17.90;;
1977;SDS011;989;53.016;8.346;2024-03-08T12:26:14;29.60;;;17.93;;
1977;SDS011;989;53.016;8.346;2024-03-08T12:28:43;31.60;;;21.13;;
1977;SDS011;989;53.016;8.346;2024-03-08T12:31:11;24.17;;;16.03;;
1977;SDS011;989;53.016;8.346;2024-03-08T12:33:50;31.43;;;18.70;;
1977;SDS011;989;53.016;8.346;2024-03-08T12:36:16;29.47;;;20.30;;
1977;SDS011;989;53.016;8.346;2024-03-08T12:38:48;28.50;;;18.60;;
1977;SDS011;989;53.016;8.346;2024-03-08T12:41:17;27.97;;;19.00;;
1977;SDS011;989;53.016;8.346;2024-03-08T12:43:44;29.70;;;17.97;;
1977;SDS011;989;53.016;8.346;2024-03-08T12:46:17;38.07;;;19.87;;
1977;SDS011;989;53.016;8.346;2024-03-08T12:48:43;26.10;;;18.87;;
1977;SDS011;989;53.016;8.346;2024-03-08T12:51:12;27.43;;;18.83;;
1977;SDS011;989;53.016;8.346;2024-03-08T12:53:43;32.77;;;18.80;;
1977;SDS011;989;53.016;8.346;2024-03-08T12:56:10;22.13;;;17.37;;
1977;SDS011;989;53.016;8.346;2024-03-08T12:58:37;28.73;;;18.77;;
1977;SDS011;989;53.016;8.346;2024-03-08T13:01:03;30.03;;;19.80;;
1977;SDS011;989;53.016;8.346;2024-03-08T13:03:35;27.33;;;18.20;;
1977;SDS011;989;53.016;8.346;2024-03-08T13:06:03;27.97;;;18.70;;
1977;SDS011;989;53.016;8.346;2024-03-08T13:08:34;32.40;;;17.07;;
1977;SDS011;989;53.016;8.346;2024-03-08T13:11:01;25.07;;;16.87;;
1977;SDS011;989;53.016;8.346;2024-03-08T13:13:26;27.93;;;19.37;;
1977;SDS011;989;53.016;8.346;2024-03-08T13:15:52;28.60;;;17.60;;
1977;SDS011;989;53.016;8.346;2024-03-08T13:18:18;24.33;;;16.87;;
1977;SDS011;989;53.016;8.346;2024-03-08T13:20:43;24.93;;;17.93;;
1977;SDS011;989;53.016;8.346;2024-03-08T13:23:14;24.37;;;17.97;;
1977;SDS011;989;53.016;8.346;2024-03-08T13:25:39;28.10;;;18.70;;
1977;SDS011;989;53.016;8.346;2024-03-08T13:28:06;22.50;;;17.00;;
1977;SDS011;989;53.016;8.346;2024-03-08T13:30:31;26.90;;;19.17;;
1977;SDS011;989;53.016;8.346;2024-03-08T13:32:57;28.13;;;19.70;;
1977;SDS011;989;53.016;8.346;2024-03-08T13:35:22;23.83;;;15.70;;
1977;SDS011;989;53.016;8.346;2024-03-08T13:37:49;29.00;;;18.70;;
1977;SDS011;989;53.016;8.346;2024-03-08T13:40:15;22.67;;;16.47;;
1977;SDS011;989;53.016;8.346;2024-03-08T13:42:43;28.13;;;18.00;;
1977;SDS011;989;53.016;8.346;2024-03-08T13:45:09;28.87;;;18.93;;
1977;SDS011;989;53.016;8.346;2024-03-08T13:47:39;26.93;;;17.40;;
1977;SDS011;989;53.016;8.346;2024-03-08T13:50:06;31.23;;;17.97;;
1977;SDS011;989;53.016;8.346;2024-03-08T13:52:33;27.90;;;18.60;;
1977;SDS011;989;53.016;8.346;2024-03-08T13:55:00;26.60;;;16.87;;
1977;SDS011;989;53.016;8.346;2024-03-08T13:57:25;27.00;;;17.60;;
1977;SDS011;989;53.016;8.346;2024-03-08T13:59:52;29.37;;;17.10;;
1977;SDS011;989;53.016;8.346;2024-03-08T14:02:17;24.67;;;17.10;;
1977;SDS011;989;53.016;8.346;2024-03-08T14:04:43;25.57;;;17.70;;
1977;SDS011;989;53.016;8.346;2024-03-08T14:07:08;29.37;;;15.43;;
1977;SDS011;989;53.016;8.346;2024-03-08T14:09:34;26.93;;;17.10;;
1977;SDS011;989;53.016;8.346;2024-03-08T14:12:03;24.47;;;17.20;;
1977;SDS011;989;53.016;8.346;2024-03-08T14:14:32;23.40;;;17.70;;
1977;SDS011;989;53.016;8.346;2024-03-08T14:16:59;29.10;;;17.93;;
1977;SDS011;989;53.016;8.346;2024-03-08T14:19:24;31.00;;;17.17;;
1977;SDS011;989;53.016;8.346;2024-03-08T14:21:50;27.50;;;16.27;;
1977;SDS011;989;53.016;8.346;2024-03-08T14:24:18;22.93;;;16.23;;
1977;SDS011;989;53.016;8.346;2024-03-08T14:26:44;33.93;;;17.80;;
1977;SDS011;989;53.016;8.346;2024-03-08T14:29:09;26.70;;;17.80;;
1977;SDS011;989;53.016;8.346;2024-03-08T14:31:35;25.57;;;18.83;;
1977;SDS011;989;53.016;8.346;2024-03-08T14:34:01;22.60;;;14.87;;
1977;SDS011;989;53.016;8.346;2024-03-08T14:36:28;27.27;;;18.60;;
1977;SDS011;989;53.016;8.346;2024-03-08T14:38:53;25.27;;;16.80;;
1977;SDS011;989;53.016;8.346;2024-03-08T14:41:19;24.47;;;16.40;;
1977;SDS011;989;53.016;8.346;2024-03-08T14:43:44;29.60;;;18.10;;
1977;SDS011;989;53.016;8.346;2024-03-08T14:46:10;29.70;;;17.80;;
1977;SDS011;989;53.016;8.346;2024-03-08T14:48:41;30.67;;;17.30;;
1977;SDS011;989;53.016;8.346;2024-03-08T14:51:08;26.07;;;18.10;;
1977;SDS011;989;53.016;8.346;2024-03-08T14:53:35;23.63;;;15.50;;
1977;SDS011;989;53.016;8.346;2024-03-08T14:56:01;33.93;;;16.87;;
1977;SDS011;989;53.016;8.346;2024-03-08T14:58:26;27.90;;;16.67;;
1977;SDS011;989;53.016;8.346;2024-03-08T15:00:52;27.10;;;17.77;;
1977;SDS011;989;53.016;8.346;2024-03-08T15:03:20;26.47;;;17.40;;
1977;SDS011;989;53.016;8.346;2024-03-08T15:05:50;24.57;;;16.23;;
1977;SDS011;989;53.016;8.346;2024-03-08T15:08:15;28.13;;;16.00;;
1977;SDS011;989;53.016;8.346;2024-03-08T15:10:44;25.37;;;17.10;;
1977;SDS011;989;53.016;8.346;2024-03-08T15:13:19;31.73;;;18.10;;
1977;SDS011;989;53.016;8.346;2024-03-08T15:15:52;23.93;;;15.30;;